sensor_id;sensor_type;location;lat;lon;timestamp;temperature;humidity
41924;DHT22;27613;48.116;11.656;2022-09-12T00:00:08;9.90;99.90
41924;DHT22;27613;48.116;11.656;2022-09-12T00:02:33;10.10;99.90
41924;DHT22;27613;48.116;11.656;2022-09-12T00:04:59;10.10;99.90
41924;DHT22;27613;48.116;11.656;2022-09-12T00:07:24;10.10;99.90
41924;DHT22;27613;48.116;11.656;2022-09-12T00:09:50;10.00;99.90
41924;DHT22;27613;48.116;11.656;2022-09-12T00:12:16;10.10;99.90
41924;DHT22;27613;48.116;11.656;2022-09-12T00:14:41;10.00;99.90
41924;DHT22;27613;48.116;11.656;2022-09-12T00:17:07;10.00;99.90
41924;DHT22;27613;48.116;11.656;2022-09-12T00:19:32;10.00;99.90
41924;DHT22;27613;48.116;11.656;2022-09-12T00:21:58;10.00;99.90
41924;DHT22;27613;48.116;11.656;2022-09-12T00:24:24;10.00;99.90
41924;DHT22;27613;48.116;11.656;2022-09-12T00:26:49;10.00;99.90
41924;DHT22;27613;48.116;11.656;2022-09-12T00:29:19;9.90;99.90
41924;DHT22;27613;48.116;11.656;2022-09-12T00:31:45;10.00;99.90
41924;DHT22;27613;48.116;11.656;2022-09-12T00:34:11;9.90;99.90
41924;DHT22;27613;48.116;11.656;2022-09-12T00:36:38;9.80;99.90
41924;DHT22;27613;48.116;11.656;2022-09-12T00:39:05;9.70;99.90
41924;DHT22;27613;48.116;11.656;2022-09-12T00:41:34;9.60;99.90
41924;DHT22;27613;48.116;11.656;2022-09-12T00:44:38;9.60;99.90
41924;DHT22;27613;48.116;11.656;2022-09-12T00:52:14;9.40;99.90
41924;DHT22;27613;48.116;11.656;2022-09-12T00:54:46;9.40;99.90
41924;DHT22;27613;48.116;11.656;2022-09-12T00:57:13;9.40;99.90
41924;DHT22;27613;48.116;11.656;2022-09-12T00:59:45;9.40;99.90
41924;DHT22;27613;48.116;11.656;2022-09-12T01:02:11;9.40;99.90
41924;DHT22;27613;48.116;11.656;2022-09-12T01:04:38;9.30;99.90
41924;DHT22;27613;48.116;11.656;2022-09-12T01:07:06;9.30;99.90
41924;DHT22;27613;48.116;11.656;2022-09-12T01:09:33;9.30;99.90
41924;DHT22;27613;48.116;11.656;2022-09-12T01:12:00;9.20;99.90
41924;DHT22;27613;48.116;11.656;2022-09-12T01:14:26;9.20;99.90
41924;DHT22;27613;48.116;11.656;2022-09-12T01:16:52;9.20;99.90
41924;DHT22;27613;48.116;11.656;2022-09-12T01:22:15;9.10;99.90
41924;DHT22;27613;48.116;11.656;2022-09-12T01:44:13;8.90;99.90
41924;DHT22;27613;48.116;11.656;2022-09-12T01:47:02;8.90;99.90
41924;DHT22;27613;48.116;11.656;2022-09-12T01:52:21;8.80;99.90
41924;DHT22;27613;48.116;11.656;2022-09-12T01:54:56;8.70;99.90
41924;DHT22;27613;48.116;11.656;2022-09-12T01:57:28;8.80;99.90
41924;DHT22;27613;48.116;11.656;2022-09-12T02:00:00;8.70;99.90
41924;DHT22;27613;48.116;11.656;2022-09-12T02:02:38;8.70;99.90
41924;DHT22;27613;48.116;11.656;2022-09-12T02:05:22;8.70;99.90
41924;DHT22;27613;48.116;11.656;2022-09-12T02:08:12;8.70;99.90
41924;DHT22;27613;48.116;11.656;2022-09-12T02:11:17;8.70;99.90
41924;DHT22;27613;48.116;11.656;2022-09-12T02:13:49;8.60;99.90
41924;DHT22;27613;48.116;11.656;2022-09-12T02:16:22;8.60;99.90
41924;DHT22;27613;48.116;11.656;2022-09-12T02:18:53;8.60;99.90
41924;DHT22;27613;48.116;11.656;2022-09-12T02:21:21;8.60;99.90
41924;DHT22;27613;48.116;11.656;2022-09-12T02:23:54;8.50;99.90
41924;DHT22;27613;48.116;11.656;2022-09-12T02:26:28;8.50;99.90
41924;DHT22;27613;48.116;11.656;2022-09-12T02:28:55;8.50;99.90
41924;DHT22;27613;48.116;11.656;2022-09-12T02:31:35;8.50;99.90
41924;DHT22;27613;48.116;11.656;2022-09-12T02:34:39;8.60;99.90
41924;DHT22;27613;48.116;11.656;2022-09-12T02:40:06;8.50;99.90
41924;DHT22;27613;48.116;11.656;2022-09-12T02:42:33;8.40;99.90
41924;DHT22;27613;48.116;11.656;2022-09-12T02:44:59;8.40;99.90
41924;DHT22;27613;48.116;11.656;2022-09-12T02:48:10;8.40;99.90
41924;DHT22;27613;48.116;11.656;2022-09-12T02:50:37;8.30;99.90
41924;DHT22;27613;48.116;11.656;2022-09-12T02:53:04;8.30;99.90
41924;DHT22;27613;48.116;11.656;2022-09-12T02:55:32;8.30;99.90
41924;DHT22;27613;48.116;11.656;2022-09-12T02:58:04;8.20;99.90
41924;DHT22;27613;48.116;11.656;2022-09-12T03:00:36;8.30;99.90
41924;DHT22;27613;48.116;11.656;2022-09-12T03:06:47;8.30;99.90
41924;DHT22;27613;48.116;11.656;2022-09-12T03:09:11;8.20;99.90
41924;DHT22;27613;48.116;11.656;2022-09-12T03:20:21;8.10;99.90
41924;DHT22;27613;48.116;11.656;2022-09-12T03:22:31;8.10;99.90
41924;DHT22;27613;48.116;11.656;2022-09-12T03:25:21;8.00;99.90
41924;DHT22;27613;48.116;11.656;2022-09-12T03:30:22;8.00;99.90
41924;DHT22;27613;48.116;11.656;2022-09-12T03:32:51;8.00;99.90
41924;DHT22;27613;48.116;11.656;2022-09-12T03:35:19;8.00;99.90
41924;DHT22;27613;48.116;11.656;2022-09-12T03:37:46;8.00;99.90
41924;DHT22;27613;48.116;11.656;2022-09-12T03:40:12;7.90;99.90
41924;DHT22;27613;48.116;11.656;2022-09-12T03:42:40;7.90;99.90
41924;DHT22;27613;48.116;11.656;2022-09-12T03:45:06;7.90;99.90
41924;DHT22;27613;48.116;11.656;2022-09-12T03:47:33;7.90;99.90
41924;DHT22;27613;48.116;11.656;2022-09-12T03:49:58;7.90;99.90
41924;DHT22;27613;48.116;11.656;2022-09-12T03:52:24;7.80;99.90
41924;DHT22;27613;48.116;11.656;2022-09-12T03:54:49;7.80;99.90
41924;DHT22;27613;48.116;11.656;2022-09-12T03:57:15;7.80;99.90
41924;DHT22;27613;48.116;11.656;2022-09-12T03:59:41;7.80;99.90
41924;DHT22;27613;48.116;11.656;2022-09-12T04:02:06;7.80;99.90
41924;DHT22;27613;48.116;11.656;2022-09-12T04:04:34;7.80;99.90
41924;DHT22;27613;48.116;11.656;2022-09-12T04:06:59;7.80;99.90
41924;DHT22;27613;48.116;11.656;2022-09-12T04:09:25;7.70;99.90
41924;DHT22;27613;48.116;11.656;2022-09-12T04:11:50;7.60;99.90
41924;DHT22;27613;48.116;11.656;2022-09-12T04:14:16;7.70;99.90
41924;DHT22;27613;48.116;11.656;2022-09-12T04:16:41;7.60;99.90
41924;DHT22;27613;48.116;11.656;2022-09-12T04:19:09;7.60;99.90
41924;DHT22;27613;48.116;11.656;2022-09-12T04:21:35;7.60;99.90
41924;DHT22;27613;48.116;11.656;2022-09-12T04:24:01;7.60;99.90
41924;DHT22;27613;48.116;11.656;2022-09-12T04:26:27;7.60;99.90
41924;DHT22;27613;48.116;11.656;2022-09-12T04:28:54;7.50;99.90
41924;DHT22;27613;48.116;11.656;2022-09-12T04:31:22;7.50;99.90
41924;DHT22;27613;48.116;11.656;2022-09-12T04:33:56;7.50;99.90
41924;DHT22;27613;48.116;11.656;2022-09-12T04:36:23;7.50;99.90
41924;DHT22;27613;48.116;11.656;2022-09-12T04:38:49;7.40;99.90
41924;DHT22;27613;48.116;11.656;2022-09-12T04:41:22;7.50;99.90
41924;DHT22;27613;48.116;11.656;2022-09-12T04:44:11;7.50;99.90
41924;DHT22;27613;48.116;11.656;2022-09-12T04:46:43;7.50;99.90
41924;DHT22;27613;48.116;11.656;2022-09-12T04:49:10;7.50;99.90
41924;DHT22;27613;48.116;11.656;2022-09-12T04:51:37;7.50;99.90
41924;DHT22;27613;48.116;11.656;2022-09-12T04:54:11;7.40;99.90
41924;DHT22;27613;48.116;11.656;2022-09-12T04:56:42;7.50;99.90
41924;DHT22;27613;48.116;11.656;2022-09-12T04:59:09;7.40;99.90
41924;DHT22;27613;48.116;11.656;2022-09-12T05:01:35;7.50;99.90
41924;DHT22;27613;48.116;11.656;2022-09-12T05:04:01;7.50;99.90
41924;DHT22;27613;48.116;11.656;2022-09-12T05:06:29;7.50;99.90
41924;DHT22;27613;48.116;11.656;2022-09-12T05:08:56;7.50;99.90
41924;DHT22;27613;48.116;11.656;2022-09-12T05:11:25;7.50;99.90
41924;DHT22;27613;48.116;11.656;2022-09-12T05:13:51;7.50;99.90
41924;DHT22;27613;48.116;11.656;2022-09-12T05:16:18;7.50;99.90
41924;DHT22;27613;48.116;11.656;2022-09-12T05:18:45;7.60;99.90
41924;DHT22;27613;48.116;11.656;2022-09-12T05:21:13;7.60;99.90
41924;DHT22;27613;48.116;11.656;2022-09-12T05:23:39;7.60;99.90
41924;DHT22;27613;48.116;11.656;2022-09-12T05:26:05;7.70;99.90
41924;DHT22;27613;48.116;11.656;2022-09-12T05:28:34;7.70;99.90
41924;DHT22;27613;48.116;11.656;2022-09-12T05:31:21;7.80;99.90
41924;DHT22;27613;48.116;11.656;2022-09-12T05:33:49;7.90;99.90
41924;DHT22;27613;48.116;11.656;2022-09-12T05:36:20;7.90;99.90
41924;DHT22;27613;48.116;11.656;2022-09-12T05:38:47;8.10;99.90
41924;DHT22;27613;48.116;11.656;2022-09-12T05:41:18;8.10;99.90
41924;DHT22;27613;48.116;11.656;2022-09-12T05:43:44;8.20;99.90
41924;DHT22;27613;48.116;11.656;2022-09-12T05:46:12;8.30;99.90
41924;DHT22;27613;48.116;11.656;2022-09-12T05:48:40;8.30;99.90
41924;DHT22;27613;48.116;11.656;2022-09-12T05:51:08;8.40;99.90
41924;DHT22;27613;48.116;11.656;2022-09-12T05:53:39;8.50;99.90
41924;DHT22;27613;48.116;11.656;2022-09-12T05:56:10;8.50;99.90
41924;DHT22;27613;48.116;11.656;2022-09-12T05:58:37;8.60;99.90
41924;DHT22;27613;48.116;11.656;2022-09-12T06:01:12;8.70;99.90
41924;DHT22;27613;48.116;11.656;2022-09-12T06:03:43;8.70;99.90
41924;DHT22;27613;48.116;11.656;2022-09-12T06:06:13;8.80;99.90
41924;DHT22;27613;48.116;11.656;2022-09-12T06:08:41;8.90;99.90
41924;DHT22;27613;48.116;11.656;2022-09-12T06:11:09;8.90;99.90
41924;DHT22;27613;48.116;11.656;2022-09-12T06:13:37;9.00;99.90
41924;DHT22;27613;48.116;11.656;2022-09-12T06:16:08;9.10;99.90
41924;DHT22;27613;48.116;11.656;2022-09-12T06:18:35;9.20;99.90
41924;DHT22;27613;48.116;11.656;2022-09-12T06:21:03;9.30;99.90
41924;DHT22;27613;48.116;11.656;2022-09-12T06:23:29;9.60;99.90
41924;DHT22;27613;48.116;11.656;2022-09-12T06:25:55;9.70;99.90
41924;DHT22;27613;48.116;11.656;2022-09-12T06:28:20;9.70;99.90
41924;DHT22;27613;48.116;11.656;2022-09-12T06:30:46;9.80;99.90
41924;DHT22;27613;48.116;11.656;2022-09-12T06:33:13;9.90;99.90
41924;DHT22;27613;48.116;11.656;2022-09-12T06:35:39;10.00;99.90
41924;DHT22;27613;48.116;11.656;2022-09-12T06:38:05;10.20;99.90
41924;DHT22;27613;48.116;11.656;2022-09-12T06:40:31;10.30;99.90
41924;DHT22;27613;48.116;11.656;2022-09-12T06:42:57;10.40;99.90
41924;DHT22;27613;48.116;11.656;2022-09-12T06:45:23;10.50;99.90
41924;DHT22;27613;48.116;11.656;2022-09-12T06:47:50;10.70;99.90
41924;DHT22;27613;48.116;11.656;2022-09-12T06:50:16;10.60;99.90
41924;DHT22;27613;48.116;11.656;2022-09-12T06:52:41;10.70;99.90
41924;DHT22;27613;48.116;11.656;2022-09-12T06:55:09;10.80;99.90
41924;DHT22;27613;48.116;11.656;2022-09-12T06:57:34;10.80;99.90
41924;DHT22;27613;48.116;11.656;2022-09-12T07:00:03;11.10;99.90
41924;DHT22;27613;48.116;11.656;2022-09-12T07:02:30;11.20;99.90
41924;DHT22;27613;48.116;11.656;2022-09-12T07:04:55;11.20;99.90
41924;DHT22;27613;48.116;11.656;2022-09-12T07:07:21;11.40;99.90
41924;DHT22;27613;48.116;11.656;2022-09-12T07:09:47;11.40;99.90
41924;DHT22;27613;48.116;11.656;2022-09-12T07:12:13;11.60;99.90
41924;DHT22;27613;48.116;11.656;2022-09-12T07:14:39;11.70;99.90
41924;DHT22;27613;48.116;11.656;2022-09-12T07:17:04;11.80;99.90
41924;DHT22;27613;48.116;11.656;2022-09-12T07:19:31;11.70;99.90
41924;DHT22;27613;48.116;11.656;2022-09-12T07:21:57;11.90;99.90
41924;DHT22;27613;48.116;11.656;2022-09-12T07:24:23;12.10;99.90
41924;DHT22;27613;48.116;11.656;2022-09-12T07:26:48;12.00;99.90
41924;DHT22;27613;48.116;11.656;2022-09-12T07:29:15;12.40;99.90
41924;DHT22;27613;48.116;11.656;2022-09-12T07:31:41;12.50;99.90
41924;DHT22;27613;48.116;11.656;2022-09-12T07:34:07;12.50;99.90
41924;DHT22;27613;48.116;11.656;2022-09-12T07:36:34;12.60;99.90
41924;DHT22;27613;48.116;11.656;2022-09-12T07:38:59;12.80;99.90
41924;DHT22;27613;48.116;11.656;2022-09-12T07:41:27;12.90;99.90
41924;DHT22;27613;48.116;11.656;2022-09-12T07:43:54;13.10;99.90
41924;DHT22;27613;48.116;11.656;2022-09-12T07:46:22;13.00;99.90
41924;DHT22;27613;48.116;11.656;2022-09-12T07:48:51;13.20;99.90
41924;DHT22;27613;48.116;11.656;2022-09-12T07:51:17;13.10;99.90
41924;DHT22;27613;48.116;11.656;2022-09-12T07:53:44;13.40;99.90
41924;DHT22;27613;48.116;11.656;2022-09-12T07:56:10;13.60;99.90
41924;DHT22;27613;48.116;11.656;2022-09-12T07:58:38;13.80;99.90
41924;DHT22;27613;48.116;11.656;2022-09-12T08:01:13;13.90;99.90
41924;DHT22;27613;48.116;11.656;2022-09-12T08:03:43;14.20;99.90
41924;DHT22;27613;48.116;11.656;2022-09-12T08:06:11;14.60;99.90
41924;DHT22;27613;48.116;11.656;2022-09-12T08:08:38;14.70;99.90
41924;DHT22;27613;48.116;11.656;2022-09-12T08:11:07;15.00;99.90
41924;DHT22;27613;48.116;11.656;2022-09-12T08:13:34;15.20;99.90
41924;DHT22;27613;48.116;11.656;2022-09-12T08:16:05;15.40;99.90
41924;DHT22;27613;48.116;11.656;2022-09-12T08:18:33;16.00;99.90
41924;DHT22;27613;48.116;11.656;2022-09-12T08:21:01;17.00;99.70
41924;DHT22;27613;48.116;11.656;2022-09-12T08:23:28;18.00;95.30
41924;DHT22;27613;48.116;11.656;2022-09-12T08:25:58;19.20;92.00
41924;DHT22;27613;48.116;11.656;2022-09-12T08:28:24;20.60;87.50
41924;DHT22;27613;48.116;11.656;2022-09-12T08:30:51;21.60;81.70
41924;DHT22;27613;48.116;11.656;2022-09-12T08:33:17;22.50;77.80
41924;DHT22;27613;48.116;11.656;2022-09-12T08:35:42;23.00;74.50
41924;DHT22;27613;48.116;11.656;2022-09-12T08:38:08;23.90;71.50
41924;DHT22;27613;48.116;11.656;2022-09-12T08:40:47;24.50;67.10
41924;DHT22;27613;48.116;11.656;2022-09-12T08:46:14;25.10;68.10
41924;DHT22;27613;48.116;11.656;2022-09-12T08:48:49;26.30;64.40
41924;DHT22;27613;48.116;11.656;2022-09-12T08:51:17;25.60;62.60
41924;DHT22;27613;48.116;11.656;2022-09-12T08:53:48;26.20;62.00
41924;DHT22;27613;48.116;11.656;2022-09-12T08:56:15;25.50;61.10
41924;DHT22;27613;48.116;11.656;2022-09-12T08:58:43;27.20;61.50
41924;DHT22;27613;48.116;11.656;2022-09-12T09:01:31;27.70;59.80
41924;DHT22;27613;48.116;11.656;2022-09-12T09:10:17;28.00;57.70
41924;DHT22;27613;48.116;11.656;2022-09-12T09:18:50;30.20;53.60
41924;DHT22;27613;48.116;11.656;2022-09-12T09:21:28;29.80;52.20
41924;DHT22;27613;48.116;11.656;2022-09-12T09:24:05;30.30;54.50
41924;DHT22;27613;48.116;11.656;2022-09-12T09:27:00;29.80;52.50
41924;DHT22;27613;48.116;11.656;2022-09-12T09:29:32;30.50;51.20
41924;DHT22;27613;48.116;11.656;2022-09-12T09:32:00;31.50;50.80
41924;DHT22;27613;48.116;11.656;2022-09-12T09:34:30;30.30;50.90
41924;DHT22;27613;48.116;11.656;2022-09-12T09:44:58;31.10;52.20
41924;DHT22;27613;48.116;11.656;2022-09-12T09:47:25;31.80;50.40
41924;DHT22;27613;48.116;11.656;2022-09-12T09:49:50;32.30;49.20
41924;DHT22;27613;48.116;11.656;2022-09-12T09:52:23;32.70;48.30
41924;DHT22;27613;48.116;11.656;2022-09-12T09:54:53;33.00;48.40
41924;DHT22;27613;48.116;11.656;2022-09-12T10:00:26;31.60;47.00
41924;DHT22;27613;48.116;11.656;2022-09-12T10:05:43;34.50;45.20
41924;DHT22;27613;48.116;11.656;2022-09-12T10:08:10;34.70;44.70
41924;DHT22;27613;48.116;11.656;2022-09-12T10:11:08;34.40;44.90
41924;DHT22;27613;48.116;11.656;2022-09-12T10:16:24;34.40;45.50
41924;DHT22;27613;48.116;11.656;2022-09-12T10:18:53;33.90;45.90
41924;DHT22;27613;48.116;11.656;2022-09-12T10:21:38;34.00;47.10
41924;DHT22;27613;48.116;11.656;2022-09-12T10:24:28;34.50;44.10
41924;DHT22;27613;48.116;11.656;2022-09-12T10:27:30;34.30;45.60
41924;DHT22;27613;48.116;11.656;2022-09-12T10:29:54;34.50;44.50
41924;DHT22;27613;48.116;11.656;2022-09-12T10:32:39;35.10;44.00
41924;DHT22;27613;48.116;11.656;2022-09-12T10:35:20;34.70;43.40
41924;DHT22;27613;48.116;11.656;2022-09-12T10:38:22;35.50;43.60
41924;DHT22;27613;48.116;11.656;2022-09-12T10:41:02;35.40;43.80
41924;DHT22;27613;48.116;11.656;2022-09-12T10:43:35;35.30;43.60
41924;DHT22;27613;48.116;11.656;2022-09-12T10:48:40;35.60;43.80
41924;DHT22;27613;48.116;11.656;2022-09-12T10:53:59;35.30;42.90
41924;DHT22;27613;48.116;11.656;2022-09-12T10:56:31;35.40;43.00
41924;DHT22;27613;48.116;11.656;2022-09-12T11:01:40;36.00;41.60
41924;DHT22;27613;48.116;11.656;2022-09-12T11:04:25;35.70;43.00
41924;DHT22;27613;48.116;11.656;2022-09-12T11:09:31;36.10;42.90
41924;DHT22;27613;48.116;11.656;2022-09-12T11:23:44;35.10;43.30
41924;DHT22;27613;48.116;11.656;2022-09-12T11:40:02;35.10;42.70
41924;DHT22;27613;48.116;11.656;2022-09-12T11:42:35;35.70;42.40
41924;DHT22;27613;48.116;11.656;2022-09-12T11:45:15;35.80;42.60
41924;DHT22;27613;48.116;11.656;2022-09-12T11:47:44;35.90;42.20
41924;DHT22;27613;48.116;11.656;2022-09-12T11:50:25;35.70;41.00
41924;DHT22;27613;48.116;11.656;2022-09-12T11:52:54;35.70;41.60
41924;DHT22;27613;48.116;11.656;2022-09-12T11:55:25;35.60;41.10
41924;DHT22;27613;48.116;11.656;2022-09-12T11:57:54;35.70;41.80
41924;DHT22;27613;48.116;11.656;2022-09-12T12:00:21;35.50;41.50
41924;DHT22;27613;48.116;11.656;2022-09-12T12:08:12;35.90;42.20
41924;DHT22;27613;48.116;11.656;2022-09-12T12:10:39;35.70;40.10
41924;DHT22;27613;48.116;11.656;2022-09-12T12:13:18;35.10;41.80
41924;DHT22;27613;48.116;11.656;2022-09-12T12:15:55;35.40;42.30
41924;DHT22;27613;48.116;11.656;2022-09-12T12:18:24;35.20;40.90
41924;DHT22;27613;48.116;11.656;2022-09-12T12:20:50;34.60;40.50
41924;DHT22;27613;48.116;11.656;2022-09-12T12:23:32;34.70;42.90
41924;DHT22;27613;48.116;11.656;2022-09-12T12:26:00;34.00;42.40
41924;DHT22;27613;48.116;11.656;2022-09-12T12:31:18;35.20;42.60
41924;DHT22;27613;48.116;11.656;2022-09-12T12:36:11;35.40;41.00
41924;DHT22;27613;48.116;11.656;2022-09-12T12:38:52;35.30;41.10
41924;DHT22;27613;48.116;11.656;2022-09-12T12:43:48;35.90;40.90
41924;DHT22;27613;48.116;11.656;2022-09-12T12:46:27;36.40;39.30
41924;DHT22;27613;48.116;11.656;2022-09-12T12:51:29;35.60;40.80
41924;DHT22;27613;48.116;11.656;2022-09-12T12:53:57;35.50;41.00
41924;DHT22;27613;48.116;11.656;2022-09-12T12:56:40;36.10;40.20
41924;DHT22;27613;48.116;11.656;2022-09-12T12:59:22;36.70;40.00
41924;DHT22;27613;48.116;11.656;2022-09-12T13:01:55;36.50;39.60
41924;DHT22;27613;48.116;11.656;2022-09-12T13:04:25;35.50;40.30
41924;DHT22;27613;48.116;11.656;2022-09-12T13:12:07;36.10;39.00
41924;DHT22;27613;48.116;11.656;2022-09-12T13:20:00;36.40;40.40
41924;DHT22;27613;48.116;11.656;2022-09-12T13:22:38;35.40;39.40
41924;DHT22;27613;48.116;11.656;2022-09-12T13:25:25;35.30;40.70
41924;DHT22;27613;48.116;11.656;2022-09-12T13:30:39;35.20;41.90
41924;DHT22;27613;48.116;11.656;2022-09-12T13:35:54;35.50;41.70
41924;DHT22;27613;48.116;11.656;2022-09-12T13:41:17;35.50;41.00
41924;DHT22;27613;48.116;11.656;2022-09-12T13:43:46;34.00;40.90
41924;DHT22;27613;48.116;11.656;2022-09-12T13:46:16;34.70;42.20
41924;DHT22;27613;48.116;11.656;2022-09-12T13:48:43;35.50;41.60
41924;DHT22;27613;48.116;11.656;2022-09-12T13:51:22;35.80;40.00
41924;DHT22;27613;48.116;11.656;2022-09-12T13:53:49;35.80;40.30
41924;DHT22;27613;48.116;11.656;2022-09-12T13:56:17;36.40;40.50
41924;DHT22;27613;48.116;11.656;2022-09-12T13:58:57;36.30;39.90
41924;DHT22;27613;48.116;11.656;2022-09-12T14:01:35;37.10;40.70
41924;DHT22;27613;48.116;11.656;2022-09-12T14:04:22;36.60;39.70
41924;DHT22;27613;48.116;11.656;2022-09-12T14:07:19;36.50;40.10
41924;DHT22;27613;48.116;11.656;2022-09-12T14:09:55;36.60;39.30
41924;DHT22;27613;48.116;11.656;2022-09-12T14:12:31;36.20;39.80
41924;DHT22;27613;48.116;11.656;2022-09-12T14:14:58;35.90;40.30
41924;DHT22;27613;48.116;11.656;2022-09-12T14:17:33;36.20;38.90
41924;DHT22;27613;48.116;11.656;2022-09-12T14:20:21;36.20;40.10
41924;DHT22;27613;48.116;11.656;2022-09-12T14:22:51;36.60;38.60
41924;DHT22;27613;48.116;11.656;2022-09-12T14:25:23;36.30;39.90
41924;DHT22;27613;48.116;11.656;2022-09-12T14:27:52;35.70;40.80
41924;DHT22;27613;48.116;11.656;2022-09-12T14:30:35;35.80;40.10
41924;DHT22;27613;48.116;11.656;2022-09-12T14:35:27;36.20;40.50
41924;DHT22;27613;48.116;11.656;2022-09-12T14:37:52;36.50;40.20
41924;DHT22;27613;48.116;11.656;2022-09-12T14:40:21;36.30;40.80
41924;DHT22;27613;48.116;11.656;2022-09-12T14:42:48;35.80;41.20
41924;DHT22;27613;48.116;11.656;2022-09-12T14:45:24;34.70;41.20
41924;DHT22;27613;48.116;11.656;2022-09-12T14:47:52;34.50;42.20
41924;DHT22;27613;48.116;11.656;2022-09-12T14:50:22;34.20;42.10
41924;DHT22;27613;48.116;11.656;2022-09-12T14:53:06;33.70;42.80
41924;DHT22;27613;48.116;11.656;2022-09-12T14:55:34;33.80;43.30
41924;DHT22;27613;48.116;11.656;2022-09-12T14:58:21;33.60;43.20
41924;DHT22;27613;48.116;11.656;2022-09-12T15:00:59;33.20;43.60
41924;DHT22;27613;48.116;11.656;2022-09-12T15:03:26;33.00;43.40
41924;DHT22;27613;48.116;11.656;2022-09-12T15:05:52;32.30;43.70
41924;DHT22;27613;48.116;11.656;2022-09-12T15:08:18;31.70;45.10
41924;DHT22;27613;48.116;11.656;2022-09-12T15:10:44;31.60;45.60
41924;DHT22;27613;48.116;11.656;2022-09-12T15:15:40;31.20;46.70
41924;DHT22;27613;48.116;11.656;2022-09-12T15:18:06;31.00;46.20
41924;DHT22;27613;48.116;11.656;2022-09-12T15:20:33;31.30;45.80
41924;DHT22;27613;48.116;11.656;2022-09-12T15:23:00;31.60;45.80
41924;DHT22;27613;48.116;11.656;2022-09-12T15:25:26;31.20;45.80
41924;DHT22;27613;48.116;11.656;2022-09-12T15:27:52;31.10;45.90
41924;DHT22;27613;48.116;11.656;2022-09-12T15:30:18;31.00;46.50
41924;DHT22;27613;48.116;11.656;2022-09-12T15:32:44;31.50;45.90
41924;DHT22;27613;48.116;11.656;2022-09-12T15:35:15;31.90;46.30
41924;DHT22;27613;48.116;11.656;2022-09-12T15:37:42;32.60;44.80
41924;DHT22;27613;48.116;11.656;2022-09-12T15:40:10;32.90;44.80
41924;DHT22;27613;48.116;11.656;2022-09-12T15:42:36;32.90;43.90
41924;DHT22;27613;48.116;11.656;2022-09-12T15:45:01;32.20;45.00
41924;DHT22;27613;48.116;11.656;2022-09-12T15:47:29;32.20;44.80
41924;DHT22;27613;48.116;11.656;2022-09-12T15:49:54;32.40;45.00
41924;DHT22;27613;48.116;11.656;2022-09-12T15:52:20;32.10;45.00
41924;DHT22;27613;48.116;11.656;2022-09-12T15:54:45;32.00;44.70
41924;DHT22;27613;48.116;11.656;2022-09-12T15:57:11;30.90;46.70
41924;DHT22;27613;48.116;11.656;2022-09-12T15:59:36;31.30;46.00
41924;DHT22;27613;48.116;11.656;2022-09-12T16:02:02;31.80;45.40
41924;DHT22;27613;48.116;11.656;2022-09-12T16:04:29;31.60;46.10
41924;DHT22;27613;48.116;11.656;2022-09-12T16:06:55;31.30;46.90
41924;DHT22;27613;48.116;11.656;2022-09-12T16:09:21;31.40;47.00
41924;DHT22;27613;48.116;11.656;2022-09-12T16:11:47;31.20;47.10
41924;DHT22;27613;48.116;11.656;2022-09-12T16:14:14;30.90;47.80
41924;DHT22;27613;48.116;11.656;2022-09-12T16:16:41;30.60;48.10
41924;DHT22;27613;48.116;11.656;2022-09-12T16:19:07;30.40;48.40
41924;DHT22;27613;48.116;11.656;2022-09-12T16:21:34;30.50;48.50
41924;DHT22;27613;48.116;11.656;2022-09-12T16:24:01;30.60;48.40
41924;DHT22;27613;48.116;11.656;2022-09-12T16:26:26;30.50;47.70
41924;DHT22;27613;48.116;11.656;2022-09-12T16:28:56;30.60;47.40
41924;DHT22;27613;48.116;11.656;2022-09-12T16:31:22;30.30;47.70
41924;DHT22;27613;48.116;11.656;2022-09-12T16:33:48;29.80;48.20
41924;DHT22;27613;48.116;11.656;2022-09-12T16:36:16;29.30;49.50
41924;DHT22;27613;48.116;11.656;2022-09-12T16:38:46;28.30;50.00
41924;DHT22;27613;48.116;11.656;2022-09-12T16:41:14;27.40;51.60
41924;DHT22;27613;48.116;11.656;2022-09-12T16:43:40;26.80;53.20
41924;DHT22;27613;48.116;11.656;2022-09-12T16:46:12;26.10;55.00
41924;DHT22;27613;48.116;11.656;2022-09-12T16:48:49;25.50;57.00
41924;DHT22;27613;48.116;11.656;2022-09-12T16:51:17;25.30;58.40
41924;DHT22;27613;48.116;11.656;2022-09-12T16:53:44;25.00;59.20
41924;DHT22;27613;48.116;11.656;2022-09-12T16:56:10;24.70;59.60
41924;DHT22;27613;48.116;11.656;2022-09-12T16:58:38;24.40;60.00
41924;DHT22;27613;48.116;11.656;2022-09-12T17:01:10;24.30;60.60
41924;DHT22;27613;48.116;11.656;2022-09-12T17:03:36;23.80;60.80
41924;DHT22;27613;48.116;11.656;2022-09-12T17:06:04;23.80;61.50
41924;DHT22;27613;48.116;11.656;2022-09-12T17:08:32;23.30;60.70
41924;DHT22;27613;48.116;11.656;2022-09-12T17:11:00;23.00;61.40
41924;DHT22;27613;48.116;11.656;2022-09-12T17:13:26;23.10;62.60
41924;DHT22;27613;48.116;11.656;2022-09-12T17:15:52;23.00;63.10
41924;DHT22;27613;48.116;11.656;2022-09-12T17:18:18;22.80;63.90
41924;DHT22;27613;48.116;11.656;2022-09-12T17:20:43;22.70;65.00
41924;DHT22;27613;48.116;11.656;2022-09-12T17:23:09;22.60;65.00
41924;DHT22;27613;48.116;11.656;2022-09-12T17:25:34;22.00;66.40
41924;DHT22;27613;48.116;11.656;2022-09-12T17:28:00;22.10;67.50
41924;DHT22;27613;48.116;11.656;2022-09-12T17:30:29;22.10;68.20
41924;DHT22;27613;48.116;11.656;2022-09-12T17:32:57;22.00;67.80
41924;DHT22;27613;48.116;11.656;2022-09-12T17:35:23;21.90;69.30
41924;DHT22;27613;48.116;11.656;2022-09-12T17:37:49;21.80;69.30
41924;DHT22;27613;48.116;11.656;2022-09-12T17:40:14;21.60;70.10
41924;DHT22;27613;48.116;11.656;2022-09-12T17:42:40;21.50;70.40
41924;DHT22;27613;48.116;11.656;2022-09-12T17:45:06;21.50;70.90
41924;DHT22;27613;48.116;11.656;2022-09-12T17:47:32;21.40;71.30
41924;DHT22;27613;48.116;11.656;2022-09-12T17:49:58;21.30;71.90
41924;DHT22;27613;48.116;11.656;2022-09-12T17:52:24;21.20;72.40
41924;DHT22;27613;48.116;11.656;2022-09-12T17:54:50;21.00;73.00
41924;DHT22;27613;48.116;11.656;2022-09-12T17:57:15;20.90;72.80
41924;DHT22;27613;48.116;11.656;2022-09-12T17:59:41;20.80;73.80
41924;DHT22;27613;48.116;11.656;2022-09-12T18:02:11;20.70;73.80
41924;DHT22;27613;48.116;11.656;2022-09-12T18:04:37;20.60;75.00
41924;DHT22;27613;48.116;11.656;2022-09-12T18:07:03;20.50;75.60
41924;DHT22;27613;48.116;11.656;2022-09-12T18:09:29;20.40;76.30
41924;DHT22;27613;48.116;11.656;2022-09-12T18:11:55;20.20;76.90